Piedmont Triad International Airport Greensboro US
ICAO: KGSO
IATA: GSO
Category: Large
Scheduled Services: Yes

Elevation: 925 ft
TransAlt. 18000 ft.

Airport Communications:
APP/DEP:118.5
ATIS:128.55
CLNC DEL:121.75
GND:121.9
TWR:119.1
UNICOM:122.95

KGSO Zoom In..

If you have problems with the map follow the link
https://www.worldairports.se/pages/airport.php?
ICAO=KGSO

Runways:

(A) RW 05L length 9000 ft width 150 ft
ILS 109.55 / hdg 54

(B) RW 05R length 10001 ft width 150 ft
ILS 111.90 / hdg 54

(C) RW 14 length 6380 ft width 150 ft
ILS 109.90 / hdg 143

(D) RW 23L length 10001 ft width 150 ft
ILS 109.30 / hdg 234

(E) RW 23R length 9000 ft width 150 ft
ILS 109.55 / hdg 234

(F) RW 32 length 6380 ft width 150 ft
---- / hdg 323

Location; KGSO
Day. 18 / Time. 01.54 Zulu
* Altimeter: 29.93
* Temperature: 02° c. 35.6°f.
* Wind from: 190° Speed 05 kn.
Dewpoint: 02° c.
Visibility: 2 Statute Miles.
Clouds: Broken 500 ft.
Clouds: Overcast 4000 ft.
Conditions: Mist.

KGSO 180154Z 19005KT 2SM +RA BR BKN005 OVC040 02/02 A2993 RMK AO2 RAB06 SLP141 P0008 T00220022


Wind From 190°
Speed 05 kn.

 
 
jpsmedia.com for Web Design worldairports.se 2019   terms of use